Time;durP1;ratioP1;P1;durP2;ratioP2;P2;SDS_P1;SDS_P2;PMS_P1;PMS_P2;Temp;Humidity;BMP_temperature;BMP_pressure;BME280_temperature;BME280_humidity;BME280_pressure;Samples;Min_cycle;Max_cycle;Signal;HPM_P1;HPM_P2
2024/01/23 00:00:45;;;;;;;15.13;3.03;;;7.30;99.90;;;;;;4998714;28;20107;-71
2024/01/23 00:03:11;;;;;;;10.55;2.50;;;7.40;99.90;;;;;;5014475;28;20037;-71
2024/01/23 00:05:36;;;;;;;9.07;1.85;;;7.30;99.90;;;;;;4998741;28;20030;-71
2024/01/23 00:08:03;;;;;;;13.50;1.50;;;7.40;99.90;;;;;;4998846;28;20082;-71
2024/01/23 00:10:29;;;;;;;9.52;1.50;;;7.40;99.90;;;;;;4998821;28;20048;-71
2024/01/23 00:12:54;;;;;;;12.48;2.17;;;7.40;99.90;;;;;;4998435;28;20033;-71
2024/01/23 00:15:20;;;;;;;7.50;1.27;;;7.30;99.90;;;;;;4998739;28;20105;-71
2024/01/23 00:17:46;;;;;;;12.73;1.42;;;7.40;99.90;;;;;;4998538;28;20112;-71
2024/01/23 00:20:12;;;;;;;12.02;1.88;;;7.30;99.90;;;;;;4998351;28;20112;-71
2024/01/23 00:22:37;;;;;;;18.67;1.40;;;7.30;99.90;;;;;;5013630;28;20049;-71
2024/01/23 00:25:03;;;;;;;9.20;1.70;;;7.40;99.90;;;;;;5013962;28;20034;-71
2024/01/23 00:27:29;;;;;;;6.10;1.23;;;7.40;99.90;;;;;;4998361;28;20022;-71
2024/01/23 00:29:54;;;;;;;11.80;1.45;;;7.40;99.90;;;;;;5014344;28;20018;-70
2024/01/23 00:32:20;;;;;;;11.40;0.82;;;7.30;99.90;;;;;;4998080;28;20033;-70
2024/01/23 00:34:45;;;;;;;14.18;3.10;;;7.30;99.90;;;;;;4997266;28;20014;-70
2024/01/23 00:37:11;;;;;;;14.18;1.98;;;7.30;99.90;;;;;;5013808;28;20057;-70
2024/01/23 00:39:39;;;;;;;5.47;0.82;;;7.30;99.90;;;;;;4998430;28;20030;-70
2024/01/23 00:42:08;;;;;;;8.13;1.55;;;7.30;99.90;;;;;;5013482;28;20096;-70
2024/01/23 00:44:34;;;;;;;11.98;1.52;;;7.30;99.90;;;;;;4997629;28;20113;-70
2024/01/23 00:47:00;;;;;;;8.88;1.48;;;7.20;99.90;;;;;;4997956;28;20061;-71
2024/01/23 00:49:25;;;;;;;10.50;1.33;;;7.20;99.90;;;;;;4998058;28;20110;-70
2024/01/23 00:51:51;;;;;;;7.57;1.00;;;7.20;99.90;;;;;;4996941;28;20121;-70
2024/01/23 00:54:17;;;;;;;9.07;1.30;;;7.20;99.90;;;;;;4997806;28;20065;-70
2024/01/23 00:56:43;;;;;;;7.30;1.27;;;7.20;99.90;;;;;;4997882;28;20030;-70
2024/01/23 00:59:12;;;;;;;10.27;1.90;;;7.30;99.90;;;;;;4997930;28;20048;-70
2024/01/23 01:01:37;;;;;;;12.20;1.25;;;7.20;99.90;;;;;;4997196;28;20084;-69
2024/01/23 01:04:03;;;;;;;10.57;1.55;;;7.20;99.90;;;;;;5013151;28;20026;-68
2024/01/23 01:06:29;;;;;;;7.32;0.95;;;7.20;99.90;;;;;;4997881;28;20105;-69
2024/01/23 01:08:55;;;;;;;5.53;1.20;;;7.20;99.90;;;;;;4997536;28;20027;-69
2024/01/23 01:11:20;;;;;;;12.98;1.90;;;7.20;99.90;;;;;;4997690;28;20018;-68
2024/01/23 01:13:46;;;;;;;6.47;1.35;;;7.20;99.90;;;;;;5013384;28;20209;-68
2024/01/23 01:16:12;;;;;;;8.63;1.88;;;7.10;99.90;;;;;;4996517;28;20089;-69
2024/01/23 01:18:39;;;;;;;9.02;1.40;;;7.10;99.90;;;;;;4997783;28;20085;-68
2024/01/23 01:21:08;;;;;;;3.15;1.27;;;7.10;99.90;;;;;;4997505;28;20019;-68
2024/01/23 01:23:35;;;;;;;7.97;1.83;;;7.20;99.90;;;;;;4997536;28;20029;-68
2024/01/23 01:26:01;;;;;;;9.90;1.33;;;7.10;99.90;;;;;;4997453;28;20027;-68
2024/01/23 01:28:26;;;;;;;5.00;1.10;;;7.10;99.90;;;;;;4997373;28;20030;-68
2024/01/23 01:30:52;;;;;;;6.45;1.30;;;7.10;99.90;;;;;;5013305;28;20022;-68
2024/01/23 01:33:18;;;;;;;12.15;1.98;;;7.20;99.90;;;;;;4997373;28;20023;-68
2024/01/23 01:35:44;;;;;;;8.48;1.83;;;7.10;99.90;;;;;;5012763;28;20057;-69
2024/01/23 01:38:09;;;;;;;6.45;1.35;;;7.20;99.90;;;;;;5012779;28;20058;-69
2024/01/23 01:40:35;;;;;;;10.73;1.58;;;7.20;99.90;;;;;;5016578;28;20033;-69
2024/01/23 01:43:00;;;;;;;10.45;1.30;;;7.20;99.90;;;;;;5017837;28;20018;-69
2024/01/23 01:45:26;;;;;;;15.57;1.40;;;7.20;99.90;;;;;;5000381;28;20022;-68
2024/01/23 01:47:52;;;;;;;7.15;1.02;;;7.20;99.90;;;;;;5000974;28;20036;-68
2024/01/23 01:50:19;;;;;;;11.77;1.23;;;7.10;99.90;;;;;;5016665;28;20022;-69
2024/01/23 01:52:44;;;;;;;5.05;0.93;;;7.00;99.90;;;;;;5001022;28;20026;-68
2024/01/23 01:55:11;;;;;;;13.02;1.63;;;7.00;99.90;;;;;;5000974;28;20105;-69
2024/01/23 01:57:39;;;;;;;9.35;1.80;;;7.00;99.90;;;;;;5001084;28;20026;-69
2024/01/23 02:00:06;;;;;;;15.68;1.63;;;7.00;99.90;;;;;;5000963;28;20023;-68
2024/01/23 02:02:32;;;;;;;9.52;1.17;;;6.90;99.90;;;;;;5000935;28;20027;-69
2024/01/23 02:04:57;;;;;;;15.65;2.40;;;6.90;99.90;;;;;;5001051;28;20033;-68
2024/01/23 02:07:23;;;;;;;7.97;2.83;;;6.90;99.90;;;;;;5000704;28;20022;-68
2024/01/23 02:09:48;;;;;;;11.60;1.70;;;6.90;99.90;;;;;;5000404;28;20089;-69
2024/01/23 02:12:14;;;;;;;11.68;1.73;;;6.90;99.90;;;;;;5001332;28;20030;-68
2024/01/23 02:14:40;;;;;;;7.10;0.88;;;6.90;99.90;;;;;;5016180;28;20026;-69
2024/01/23 02:17:05;;;;;;;9.82;1.60;;;6.90;99.90;;;;;;4999956;28;20035;-68
2024/01/23 02:19:31;;;;;;;11.50;2.70;;;6.90;99.90;;;;;;5016827;28;20139;-69
2024/01/23 02:21:57;;;;;;;6.82;1.52;;;6.90;99.90;;;;;;5000617;28;20022;-68
2024/01/23 02:24:22;;;;;;;9.23;2.03;;;6.80;99.90;;;;;;5000602;28;20022;-68
2024/01/23 02:26:48;;;;;;;4.43;1.25;;;6.90;99.90;;;;;;5000373;28;20065;-69
2024/01/23 02:29:15;;;;;;;15.50;1.42;;;6.90;99.90;;;;;;5000961;28;20037;-69
2024/01/23 02:31:41;;;;;;;4.72;0.95;;;6.90;99.90;;;;;;5000294;28;20110;-68
2024/01/23 02:34:07;;;;;;;15.55;1.73;;;6.90;99.90;;;;;;5000737;28;20078;-67
2024/01/23 02:36:36;;;;;;;5.65;1.45;;;6.90;99.90;;;;;;5000455;28;20022;-70
2024/01/23 02:39:03;;;;;;;12.43;1.85;;;7.00;99.90;;;;;;5000617;28;20019;-70
2024/01/23 02:41:29;;;;;;;10.07;1.55;;;7.00;99.90;;;;;;5000306;28;20097;-70
2024/01/23 02:43:55;;;;;;;10.50;1.38;;;6.90;99.90;;;;;;4999268;28;20022;-70
2024/01/23 02:46:20;;;;;;;13.20;1.30;;;6.90;99.90;;;;;;4999153;28;20030;-70
2024/01/23 02:48:46;;;;;;;9.02;1.60;;;6.90;99.90;;;;;;5000062;28;20031;-70
2024/01/23 02:51:20;;;;;;;7.70;1.17;;;6.90;99.90;;;;;;5014668;28;20027;-70
2024/01/23 02:53:46;;;;;;;15.65;1.30;;;6.90;99.90;;;;;;5000048;28;20023;-70
2024/01/23 02:56:12;;;;;;;3.58;0.80;;;6.80;99.90;;;;;;4999907;28;20033;-67
2024/01/23 02:58:40;;;;;;;6.68;1.63;;;6.70;99.90;;;;;;4999859;28;20034;-68
2024/01/23 03:01:06;;;;;;;11.35;1.73;;;6.70;99.90;;;;;;5015433;28;20034;-69
2024/01/23 03:03:31;;;;;;;3.85;1.15;;;6.70;99.90;;;;;;4998984;28;20022;-68
2024/01/23 03:05:57;;;;;;;5.85;1.20;;;6.70;99.90;;;;;;5000094;28;20042;-68
2024/01/23 03:08:23;;;;;;;9.13;1.70;;;6.70;99.90;;;;;;4999831;28;20026;-67
2024/01/23 03:10:49;;;;;;;1.83;0.55;;;6.70;99.90;;;;;;4999943;28;20077;-71
2024/01/23 03:13:15;;;;;;;6.85;0.77;;;6.70;99.90;;;;;;5015214;28;20113;-71
2024/01/23 03:15:40;;;;;;;7.72;1.20;;;6.60;99.90;;;;;;4999862;28;20053;-71
2024/01/23 03:18:06;;;;;;;3.63;1.02;;;6.50;99.90;;;;;;4999455;28;20116;-71
2024/01/23 03:20:33;;;;;;;3.92;1.58;;;6.40;99.90;;;;;;4999576;28;20027;-71
2024/01/23 03:22:58;;;;;;;2.38;0.50;;;6.40;99.90;;;;;;5014956;28;20023;-68
2024/01/23 03:25:24;;;;;;;3.85;0.70;;;6.40;99.90;;;;;;4999926;28;20033;-69
2024/01/23 03:27:50;;;;;;;2.35;0.60;;;6.30;99.90;;;;;;5014611;28;20061;-68
2024/01/23 03:30:29;;;;;;;3.78;0.60;;;6.40;99.90;;;;;;5015769;28;20022;-69
2024/01/23 03:32:55;;;;;;;6.53;0.90;;;6.40;99.90;;;;;;4999359;28;20015;-69
2024/01/23 03:35:21;;;;;;;7.88;0.82;;;6.50;99.90;;;;;;4999224;28;20026;-69
2024/01/23 03:37:47;;;;;;;6.00;0.98;;;6.40;99.90;;;;;;4999233;28;20034;-71
2024/01/23 03:40:12;;;;;;;5.50;0.80;;;6.40;99.90;;;;;;5004702;28;20034;-71
2024/01/23 03:42:38;;;;;;;6.97;0.80;;;6.40;99.90;;;;;;4998074;28;20018;-71
2024/01/23 03:45:04;;;;;;;3.97;0.90;;;6.40;99.90;;;;;;4999069;28;20073;-71
2024/01/23 03:47:30;;;;;;;3.67;0.75;;;6.30;99.90;;;;;;4999138;28;20045;-67
2024/01/23 03:49:55;;;;;;;6.55;1.15;;;6.40;99.90;;;;;;4998998;28;20053;-67
2024/01/23 03:52:22;;;;;;;5.05;0.90;;;6.30;99.90;;;;;;4999478;28;20022;-67
2024/01/23 03:54:48;;;;;;;5.78;0.60;;;6.30;99.90;;;;;;5014234;28;20037;-68
2024/01/23 03:57:14;;;;;;;5.00;1.25;;;6.20;99.90;;;;;;4998789;28;20027;-69
2024/01/23 03:59:43;;;;;;;6.65;0.80;;;6.30;99.90;;;;;;4998943;28;20054;-71
2024/01/23 04:02:08;;;;;;;6.22;1.15;;;6.40;99.90;;;;;;4998408;28;20037;-69
2024/01/23 04:04:34;;;;;;;2.85;0.75;;;6.40;99.90;;;;;;4999047;28;20113;-70
2024/01/23 04:06:59;;;;;;;6.18;0.90;;;6.40;99.90;;;;;;4998503;28;20061;-70
2024/01/23 04:09:25;;;;;;;6.82;0.80;;;6.50;99.90;;;;;;5014287;28;20054;-69
2024/01/23 04:11:51;;;;;;;5.35;0.90;;;6.50;99.90;;;;;;4998679;28;20030;-67
2024/01/23 04:14:19;;;;;;;4.47;0.82;;;6.50;99.90;;;;;;5013998;28;20026;-70
2024/01/23 04:16:44;;;;;;;8.82;1.08;;;6.40;99.90;;;;;;4998474;28;20023;-70
2024/01/23 04:19:10;;;;;;;4.03;0.63;;;6.30;99.90;;;;;;4998759;28;20035;-72
2024/01/23 04:21:35;;;;;;;6.93;1.23;;;6.20;99.90;;;;;;4998829;28;20042;-71
2024/01/23 04:24:01;;;;;;;9.13;1.13;;;6.10;99.90;;;;;;5014285;28;20026;-71
2024/01/23 04:26:27;;;;;;;6.22;0.90;;;6.10;99.90;;;;;;4998185;28;20030;-72
2024/01/23 04:28:53;;;;;;;3.53;0.82;;;6.10;99.90;;;;;;4998429;28;20032;-71
2024/01/23 04:31:18;;;;;;;5.30;1.08;;;6.10;99.90;;;;;;4998270;28;20019;-71
2024/01/23 04:33:46;;;;;;;9.82;1.25;;;6.10;99.90;;;;;;4998198;28;20125;-71
2024/01/23 04:36:12;;;;;;;10.98;1.27;;;6.00;99.90;;;;;;4998035;28;20027;-71
2024/01/23 04:38:38;;;;;;;6.93;1.20;;;6.00;99.90;;;;;;4998073;28;20031;-71
2024/01/23 04:41:03;;;;;;;10.00;1.40;;;6.00;99.90;;;;;;4997122;28;20029;-71
2024/01/23 04:43:29;;;;;;;9.48;1.23;;;6.00;99.90;;;;;;4998297;28;20105;-71
2024/01/23 04:45:55;;;;;;;22.63;2.40;;;6.00;99.90;;;;;;5013700;28;20026;-69
2024/01/23 04:48:21;;;;;;;7.82;1.25;;;6.00;99.90;;;;;;4997803;28;20050;-69
2024/01/23 04:50:46;;;;;;;17.35;1.20;;;6.10;99.90;;;;;;5019197;28;20102;-68
2024/01/23 04:53:12;;;;;;;6.20;1.50;;;6.10;99.90;;;;;;4998575;28;20052;-69
2024/01/23 04:55:37;;;;;;;8.93;1.40;;;6.10;99.90;;;;;;4997834;28;20038;-69
2024/01/23 04:58:04;;;;;;;6.57;1.33;;;6.20;99.90;;;;;;4997702;28;20049;-70
2024/01/23 05:00:30;;;;;;;15.88;1.42;;;6.20;99.90;;;;;;5013224;28;20026;-69
2024/01/23 05:02:55;;;;;;;8.65;1.73;;;6.30;99.90;;;;;;4997846;28;20034;-69
2024/01/23 05:05:21;;;;;;;11.57;1.38;;;6.30;99.90;;;;;;4997767;28;20022;-69
2024/01/23 05:07:46;;;;;;;7.63;1.33;;;6.30;99.90;;;;;;5012897;28;20046;-69
2024/01/23 05:10:12;;;;;;;15.20;1.63;;;6.30;99.90;;;;;;4997688;28;20088;-69
2024/01/23 05:12:38;;;;;;;12.48;1.48;;;6.40;99.90;;;;;;4997635;28;20023;-69
2024/01/23 05:15:04;;;;;;;9.75;1.10;;;6.30;99.90;;;;;;4997058;28;20023;-72
2024/01/23 05:17:33;;;;;;;8.95;1.40;;;6.40;99.90;;;;;;4997657;28;20030;-72
2024/01/23 05:19:59;;;;;;;11.95;2.30;;;6.30;99.90;;;;;;4996613;28;20073;-72
2024/01/23 05:22:24;;;;;;;9.68;1.52;;;6.30;99.90;;;;;;5013234;28;20022;-72
2024/01/23 05:24:50;;;;;;;10.32;1.52;;;6.40;99.90;;;;;;4997400;28;20030;-72
2024/01/23 05:27:15;;;;;;;5.38;1.10;;;6.50;99.90;;;;;;4997653;28;20027;-72
2024/01/23 05:29:41;;;;;;;9.68;1.33;;;6.40;99.90;;;;;;4997497;28;20104;-72
2024/01/23 05:32:06;;;;;;;11.20;1.65;;;6.40;99.90;;;;;;4997567;28;20045;-72
2024/01/23 05:34:32;;;;;;;15.07;1.90;;;6.40;99.90;;;;;;5013341;28;20026;-72
2024/01/23 05:36:58;;;;;;;11.82;1.38;;;6.40;99.90;;;;;;5013074;28;20034;-72
2024/01/23 05:39:24;;;;;;;8.60;1.77;;;6.50;99.90;;;;;;4996512;28;20027;-72
2024/01/23 05:41:50;;;;;;;6.55;2.17;;;6.40;99.90;;;;;;4997823;28;20022;-72
2024/01/23 05:44:15;;;;;;;14.73;2.05;;;6.40;99.90;;;;;;4996484;28;20033;-71
2024/01/23 05:46:41;;;;;;;9.73;1.65;;;6.50;99.90;;;;;;5001494;28;20102;-72
2024/01/23 05:49:06;;;;;;;11.23;2.13;;;6.40;99.90;;;;;;5005565;28;20034;-72
2024/01/23 05:51:32;;;;;;;15.25;2.28;;;6.40;99.90;;;;;;5014741;28;20026;-72
2024/01/23 05:53:57;;;;;;;10.82;1.23;;;6.40;99.90;;;;;;5013209;28;20054;-72
2024/01/23 05:56:23;;;;;;;23.70;2.03;;;6.40;99.90;;;;;;5013492;28;20023;-71
2024/01/23 05:58:49;;;;;;;9.25;1.90;;;6.30;99.90;;;;;;4999465;28;20044;-70
2024/01/23 06:01:14;;;;;;;25.00;2.28;;;6.20;99.90;;;;;;5012653;28;20088;-70
2024/01/23 06:03:40;;;;;;;8.00;2.15;;;6.30;99.90;;;;;;5012681;28;20034;-70
2024/01/23 06:06:06;;;;;;;11.55;1.42;;;6.30;99.90;;;;;;5012499;28;20027;-70
2024/01/23 06:08:31;;;;;;;13.32;2.17;;;6.30;99.90;;;;;;4996173;28;20029;-70
2024/01/23 06:10:57;;;;;;;13.45;2.25;;;6.30;99.90;;;;;;4996237;28;20019;-70
2024/01/23 06:13:23;;;;;;;14.13;2.38;;;6.30;99.90;;;;;;5014152;28;20025;-70
2024/01/23 06:15:48;;;;;;;13.38;1.92;;;6.30;99.90;;;;;;5013725;28;20088;-70
2024/01/23 06:18:14;;;;;;;8.00;1.70;;;6.10;99.90;;;;;;5014338;28;20034;-70
2024/01/23 06:20:39;;;;;;;10.13;1.83;;;6.00;99.90;;;;;;5012853;28;20031;-70
2024/01/23 06:23:05;;;;;;;14.95;2.40;;;6.00;99.90;;;;;;4997402;28;20027;-70
2024/01/23 06:25:30;;;;;;;14.05;2.03;;;5.90;99.90;;;;;;4999099;28;20069;-70
2024/01/23 06:27:56;;;;;;;7.18;2.08;;;5.90;99.90;;;;;;5000858;28;20026;-70
2024/01/23 06:30:21;;;;;;;12.73;2.53;;;5.70;99.90;;;;;;5000196;28;20033;-70
2024/01/23 06:32:47;;;;;;;8.02;1.77;;;5.60;99.90;;;;;;5002417;28;20034;-69
2024/01/23 06:35:12;;;;;;;12.73;1.85;;;5.50;99.90;;;;;;5000452;28;20050;-69
2024/01/23 06:37:38;;;;;;;11.23;2.15;;;5.30;99.90;;;;;;5000703;28;20026;-70
2024/01/23 06:40:04;;;;;;;18.08;2.60;;;5.40;99.90;;;;;;5016165;28;20023;-69
2024/01/23 06:42:30;;;;;;;11.55;1.65;;;5.40;99.90;;;;;;5016077;28;20091;-69
2024/01/23 06:44:56;;;;;;;7.93;1.67;;;5.40;99.90;;;;;;5000633;28;20061;-69
2024/01/23 06:47:21;;;;;;;10.95;2.40;;;5.30;99.90;;;;;;5000614;28;20109;-69
2024/01/23 06:49:47;;;;;;;19.10;2.50;;;5.30;99.90;;;;;;5015618;28;20080;-69
2024/01/23 06:52:12;;;;;;;8.18;1.60;;;5.20;99.90;;;;;;4999844;28;20019;-70
2024/01/23 06:54:38;;;;;;;11.68;1.88;;;5.20;99.90;;;;;;5015455;28;20026;-69
2024/01/23 06:57:04;;;;;;;15.20;1.85;;;5.20;99.90;;;;;;5016045;28;20023;-70
2024/01/23 06:59:29;;;;;;;8.52;2.40;;;5.40;99.90;;;;;;5015576;28;20033;-70
2024/01/23 07:01:55;;;;;;;14.55;1.95;;;5.60;99.90;;;;;;5015977;28;20026;-69
2024/01/23 07:04:20;;;;;;;10.45;1.75;;;5.80;99.90;;;;;;5016157;28;20030;-70
2024/01/23 07:06:46;;;;;;;6.57;1.33;;;5.90;99.90;;;;;;5000794;28;20038;-70
2024/01/23 07:09:12;;;;;;;11.50;2.03;;;5.90;99.90;;;;;;5015033;28;20077;-70
2024/01/23 07:11:41;;;;;;;8.95;2.38;;;5.90;99.90;;;;;;4999620;28;20026;-70
2024/01/23 07:14:07;;;;;;;7.88;2.00;;;5.90;99.90;;;;;;5015880;28;20019;-70
2024/01/23 07:16:33;;;;;;;10.60;2.08;;;5.90;99.90;;;;;;5015104;28;20094;-69
2024/01/23 07:18:58;;;;;;;16.52;2.13;;;5.80;99.90;;;;;;5000042;28;20066;-70
2024/01/23 07:21:24;;;;;;;14.07;2.08;;;5.80;99.90;;;;;;5014859;28;20125;-70
2024/01/23 07:23:49;;;;;;;8.77;2.85;;;5.80;99.90;;;;;;4999494;28;20105;-70
2024/01/23 07:26:15;;;;;;;10.10;1.77;;;5.80;99.90;;;;;;4999506;28;20053;-70
2024/01/23 07:28:40;;;;;;;8.65;1.83;;;5.90;99.90;;;;;;4999382;28;20026;-70
2024/01/23 07:31:06;;;;;;;14.30;1.63;;;5.90;99.90;;;;;;5015875;28;20094;-70
2024/01/23 07:33:32;;;;;;;10.25;2.15;;;5.90;99.90;;;;;;5014773;28;20030;-72
2024/01/23 07:35:57;;;;;;;20.65;3.00;;;5.90;99.90;;;;;;4998057;28;20030;-72
2024/01/23 07:38:23;;;;;;;15.13;1.58;;;5.90;99.90;;;;;;5014212;28;20022;-71
2024/01/23 07:40:48;;;;;;;7.93;2.35;;;5.90;99.90;;;;;;4998291;28;20050;-71
2024/01/23 07:43:16;;;;;;;17.15;2.85;;;5.90;99.90;;;;;;5014653;28;20114;-72
2024/01/23 07:45:42;;;;;;;9.25;1.70;;;6.00;99.90;;;;;;5014797;28;20045;-70
2024/01/23 07:48:07;;;;;;;12.52;2.75;;;6.00;99.90;;;;;;4999004;28;20034;-71
2024/01/23 07:50:33;;;;;;;9.68;1.98;;;6.00;99.90;;;;;;4999352;28;20029;-72
2024/01/23 07:52:59;;;;;;;9.63;1.73;;;6.10;99.90;;;;;;5014374;28;20023;-71
2024/01/23 07:55:26;;;;;;;15.13;1.73;;;6.10;99.90;;;;;;4998743;28;20057;-73
2024/01/23 07:57:51;;;;;;;19.38;2.20;;;6.10;99.90;;;;;;4998806;28;20082;-72
2024/01/23 08:00:18;;;;;;;15.50;3.03;;;6.10;99.90;;;;;;4998259;28;20026;-73
2024/01/23 08:02:44;;;;;;;7.28;1.67;;;6.10;99.90;;;;;;4998839;28;20023;-72
2024/01/23 08:05:10;;;;;;;9.90;2.58;;;6.10;99.90;;;;;;5014089;28;20029;-71
2024/01/23 08:07:37;;;;;;;8.15;1.60;;;6.10;99.90;;;;;;4998612;28;20105;-71
2024/01/23 08:10:03;;;;;;;13.30;2.22;;;6.20;99.90;;;;;;4998467;28;20027;-71
2024/01/23 08:12:29;;;;;;;16.55;3.00;;;6.30;99.90;;;;;;4998444;28;20030;-70
2024/01/23 08:14:54;;;;;;;8.48;2.35;;;6.30;99.90;;;;;;5014422;28;20022;-70
2024/01/23 08:17:20;;;;;;;8.68;1.73;;;6.40;99.90;;;;;;4997876;28;20034;-71
2024/01/23 08:19:45;;;;;;;13.27;2.30;;;6.40;99.90;;;;;;4998576;28;20113;-70
2024/01/23 08:22:11;;;;;;;14.48;1.75;;;6.40;99.90;;;;;;5014204;28;20177;-71
2024/01/23 08:24:37;;;;;;;17.95;2.45;;;6.30;99.90;;;;;;4998254;28;20062;-70
2024/01/23 08:27:03;;;;;;;7.82;2.60;;;6.30;99.90;;;;;;4998321;28;20109;-71
2024/01/23 08:29:29;;;;;;;9.68;2.53;;;6.30;99.90;;;;;;4998097;28;20084;-70
2024/01/23 08:31:54;;;;;;;11.25;1.98;;;6.40;99.90;;;;;;4998123;28;20031;-70
2024/01/23 08:34:20;;;;;;;6.30;1.48;;;6.30;99.90;;;;;;5014243;28;20023;-70
2024/01/23 08:36:45;;;;;;;13.88;2.17;;;6.40;99.90;;;;;;5013428;28;20121;-71
2024/01/23 08:39:11;;;;;;;10.98;1.77;;;6.40;99.90;;;;;;5013580;28;20037;-70
2024/01/23 08:41:36;;;;;;;7.05;1.70;;;6.50;99.90;;;;;;4997997;28;20038;-70
2024/01/23 08:44:02;;;;;;;15.77;2.15;;;6.50;99.90;;;;;;4997089;28;20027;-70
2024/01/23 08:46:29;;;;;;;19.10;2.53;;;6.50;99.90;;;;;;4997889;28;20026;-70
2024/01/23 08:48:54;;;;;;;17.58;2.05;;;6.50;99.90;;;;;;4996999;28;20018;-70
2024/01/23 08:51:24;;;;;;;10.57;2.63;;;6.50;99.90;;;;;;4997830;28;20033;-71
2024/01/23 08:53:52;;;;;;;19.52;2.00;;;6.60;99.90;;;;;;4998139;28;20025;-70
2024/01/23 08:56:21;;;;;;;8.63;2.08;;;6.60;99.90;;;;;;4997819;28;20073;-70
2024/01/23 08:58:47;;;;;;;9.77;1.77;;;6.70;99.90;;;;;;5013702;28;20026;-70
2024/01/23 09:01:12;;;;;;;10.02;1.52;;;6.70;99.90;;;;;;4998032;28;20022;-70
2024/01/23 09:03:39;;;;;;;16.00;3.67;;;6.70;99.90;;;;;;5013246;28;20031;-70
2024/01/23 09:06:05;;;;;;;10.55;1.98;;;6.70;99.90;;;;;;4997714;28;20031;-70
2024/01/23 09:08:30;;;;;;;13.20;4.05;;;6.70;99.90;;;;;;4997557;28;20026;-70
2024/01/23 09:10:57;;;;;;;11.98;2.88;;;6.80;99.90;;;;;;4998185;28;20058;-70
2024/01/23 09:13:22;;;;;;;13.43;1.83;;;6.90;99.90;;;;;;4996746;28;20022;-70
2024/01/23 09:15:48;;;;;;;16.50;2.30;;;7.00;99.90;;;;;;5013074;28;20026;-70
2024/01/23 09:18:14;;;;;;;5.93;2.03;;;7.20;99.90;;;;;;5013088;28;20038;-70
2024/01/23 09:20:39;;;;;;;12.68;2.25;;;7.30;99.90;;;;;;5013052;28;20057;-70
2024/01/23 09:23:05;;;;;;;15.50;2.63;;;7.40;99.90;;;;;;4997546;28;20023;-70
2024/01/23 09:25:31;;;;;;;9.57;1.55;;;7.50;99.90;;;;;;4997626;28;20110;-70
2024/01/23 09:27:56;;;;;;;14.60;1.70;;;7.50;99.90;;;;;;4997410;28;20069;-70
2024/01/23 09:30:22;;;;;;;15.52;2.22;;;7.50;99.90;;;;;;4997516;28;20105;-70
2024/01/23 09:32:47;;;;;;;7.35;1.50;;;7.50;99.90;;;;;;4996508;28;20018;-70
2024/01/23 09:35:13;;;;;;;20.23;2.30;;;7.60;99.90;;;;;;4997443;28;20030;-70
2024/01/23 09:37:39;;;;;;;15.20;1.90;;;7.70;99.90;;;;;;4996514;28;20033;-70
2024/01/23 09:40:08;;;;;;;11.32;1.73;;;7.80;99.90;;;;;;4997447;28;20022;-70
2024/01/23 09:42:36;;;;;;;11.65;1.88;;;7.80;99.90;;;;;;4997415;28;20033;-70
2024/01/23 09:45:09;;;;;;;6.35;1.67;;;7.80;99.90;;;;;;5013042;28;20124;-70
2024/01/23 09:47:35;;;;;;;10.82;1.95;;;7.80;99.90;;;;;;4997201;28;20030;-70
2024/01/23 09:50:02;;;;;;;11.57;1.80;;;7.80;99.90;;;;;;4997286;28;20022;-70
2024/01/23 09:52:29;;;;;;;5.28;1.77;;;7.80;99.90;;;;;;4997291;28;20022;-70
2024/01/23 09:54:55;;;;;;;10.88;2.75;;;7.80;99.90;;;;;;4997448;28;20085;-70
2024/01/23 09:57:21;;;;;;;17.73;2.00;;;7.80;99.90;;;;;;4996327;28;20034;-70
2024/01/23 09:59:48;;;;;;;10.75;2.63;;;7.80;99.90;;;;;;4998317;28;20060;-70
2024/01/23 10:02:14;;;;;;;10.90;2.22;;;7.80;99.90;;;;;;5001338;28;20050;-70
2024/01/23 10:04:41;;;;;;;9.90;1.65;;;7.90;99.90;;;;;;5001457;28;20026;-70
2024/01/23 10:07:09;;;;;;;17.73;2.50;;;8.00;99.90;;;;;;5000852;28;20026;-70
2024/01/23 10:09:35;;;;;;;17.58;3.95;;;8.00;99.90;;;;;;5016264;28;20122;-70
2024/01/23 10:12:01;;;;;;;16.65;2.83;;;8.00;99.90;;;;;;5001080;28;20019;-70
2024/01/23 10:14:26;;;;;;;10.68;2.30;;;8.00;99.90;;;;;;5000631;28;20022;-70
2024/01/23 10:16:52;;;;;;;9.90;1.95;;;8.00;99.90;;;;;;4999940;28;20118;-70
2024/01/23 10:19:17;;;;;;;8.25;1.67;;;8.10;99.90;;;;;;5016069;28;20041;-70
2024/01/23 10:21:43;;;;;;;9.15;2.00;;;8.20;99.90;;;;;;5016375;28;20045;-70
2024/01/23 10:24:09;;;;;;;16.67;2.45;;;8.20;99.90;;;;;;5016936;28;20034;-70
2024/01/23 10:26:34;;;;;;;10.23;1.92;;;8.30;99.90;;;;;;5016098;28;20061;-70
2024/01/23 10:29:04;;;;;;;19.30;2.15;;;8.40;99.90;;;;;;4999599;28;20037;-70
2024/01/23 10:31:30;;;;;;;7.65;1.40;;;8.40;99.90;;;;;;5000368;28;20041;-70
2024/01/23 10:33:57;;;;;;;12.60;1.92;;;8.40;99.90;;;;;;4999615;28;20094;-70
2024/01/23 10:36:24;;;;;;;11.95;1.80;;;8.50;99.90;;;;;;5000220;28;20030;-70
2024/01/23 10:38:50;;;;;;;10.60;1.75;;;8.50;99.90;;;;;;4999428;28;20034;-70
2024/01/23 10:41:18;;;;;;;5.60;1.42;;;8.50;99.90;;;;;;4999966;28;20118;-70
2024/01/23 10:43:46;;;;;;;13.48;2.58;;;8.50;99.90;;;;;;5015948;28;20030;-70
2024/01/23 10:46:12;;;;;;;13.07;2.00;;;8.60;99.90;;;;;;5000392;28;20022;-70
2024/01/23 10:48:37;;;;;;;15.70;2.65;;;8.70;99.90;;;;;;5000145;28;20038;-70
2024/01/23 10:51:18;;;;;;;7.38;1.73;;;8.70;99.90;;;;;;5000278;28;20026;-70
2024/01/23 10:53:57;;;;;;;9.90;2.15;;;8.70;99.90;;;;;;5016333;28;20027;-70
2024/01/23 10:56:29;;;;;;;8.05;1.75;;;8.70;99.90;;;;;;4999983;28;20030;-70
2024/01/23 10:59:04;;;;;;;5.13;1.55;;;8.80;99.90;;;;;;4998977;28;20022;-70
2024/01/23 11:01:34;;;;;;;15.27;3.08;;;8.80;99.90;;;;;;4999319;28;20026;-70
2024/01/23 11:04:01;;;;;;;6.93;2.10;;;8.70;99.90;;;;;;4999061;28;20029;-70
2024/01/23 11:06:31;;;;;;;16.75;2.35;;;8.80;99.90;;;;;;4999706;28;20022;-70
2024/01/23 11:09:20;;;;;;;8.45;1.95;;;8.80;99.90;;;;;;4999791;28;20023;-70
2024/01/23 11:12:03;;;;;;;17.23;2.00;;;8.90;99.90;;;;;;5014149;28;20023;-70
2024/01/23 11:14:57;;;;;;;13.07;1.88;;;8.90;99.90;;;;;;4999778;28;20105;-70
2024/01/23 11:17:22;;;;;;;17.88;2.42;;;8.90;99.90;;;;;;5014963;28;20113;-70
2024/01/23 11:20:05;;;;;;;16.17;1.90;;;8.90;99.90;;;;;;4999648;28;20074;-70
2024/01/23 11:22:31;;;;;;;11.88;2.75;;;8.90;99.90;;;;;;4999510;28;20023;-70
2024/01/23 11:24:56;;;;;;;11.15;2.13;;;8.90;99.90;;;;;;4999450;28;20031;-70
2024/01/23 11:27:23;;;;;;;8.45;1.48;;;9.00;99.90;;;;;;5015274;28;20022;-70
2024/01/23 11:29:50;;;;;;;11.02;2.00;;;9.00;99.90;;;;;;4998355;28;20102;-70
2024/01/23 11:32:28;;;;;;;13.00;1.90;;;8.90;99.90;;;;;;4998945;28;20019;-70
2024/01/23 11:35:02;;;;;;;8.00;1.42;;;8.90;99.90;;;;;;4999402;28;20022;-70
2024/01/23 11:37:53;;;;;;;15.93;1.63;;;8.90;99.90;;;;;;4999169;28;20078;-70
2024/01/23 11:40:33;;;;;;;13.60;1.90;;;9.00;99.90;;;;;;4999879;28;20037;-70
2024/01/23 11:43:00;;;;;;;10.13;1.95;;;9.00;99.90;;;;;;4999357;28;20025;-70
2024/01/23 11:45:31;;;;;;;22.27;2.60;;;9.00;99.90;;;;;;4999147;28;20022;-70
2024/01/23 11:48:02;;;;;;;7.00;2.00;;;9.10;99.90;;;;;;4999055;28;20022;-70
2024/01/23 11:50:30;;;;;;;16.17;2.20;;;9.30;99.90;;;;;;4999311;28;20026;-70
2024/01/23 11:53:00;;;;;;;8.52;1.85;;;9.30;99.90;;;;;;5015307;28;20022;-70
2024/01/23 11:55:27;;;;;;;11.10;2.17;;;9.40;99.90;;;;;;5014421;28;20028;-70
2024/01/23 11:57:55;;;;;;;11.57;2.20;;;9.40;99.90;;;;;;4998173;28;20081;-70
2024/01/23 12:00:21;;;;;;;12.65;2.20;;;9.40;99.90;;;;;;4997799;28;20030;-70
2024/01/23 12:02:47;;;;;;;15.38;1.80;;;9.50;99.90;;;;;;5014474;28;20026;-70
2024/01/23 12:05:14;;;;;;;10.35;1.70;;;9.50;99.90;;;;;;5014159;28;20076;-70
2024/01/23 12:07:40;;;;;;;9.00;2.10;;;9.40;99.90;;;;;;4998568;28;20032;-70
2024/01/23 12:10:12;;;;;;;13.00;1.90;;;9.40;99.90;;;;;;5014344;28;20034;-70
2024/01/23 12:12:38;;;;;;;12.73;2.65;;;9.50;99.90;;;;;;4998541;28;20050;-70
2024/01/23 12:15:04;;;;;;;16.23;2.42;;;9.30;99.90;;;;;;5014881;28;20023;-70
2024/01/23 12:17:33;;;;;;;7.60;1.52;;;9.30;99.90;;;;;;5013972;28;20113;-70
2024/01/23 12:20:08;;;;;;;13.05;1.80;;;9.30;99.90;;;;;;5013919;28;20032;-70
2024/01/23 12:22:33;;;;;;;17.15;2.60;;;9.50;99.90;;;;;;4998197;28;20023;-70
2024/01/23 12:24:59;;;;;;;10.30;1.95;;;9.70;99.90;;;;;;5014063;28;20041;-70
2024/01/23 12:27:25;;;;;;;5.03;1.40;;;9.80;99.90;;;;;;4998160;28;20030;-71
2024/01/23 12:29:51;;;;;;;9.50;1.50;;;9.90;99.90;;;;;;4998910;28;20028;-70
2024/01/23 12:32:17;;;;;;;14.18;1.90;;;9.80;99.90;;;;;;5013912;28;20073;-70
2024/01/23 12:34:45;;;;;;;10.80;2.22;;;9.80;99.90;;;;;;4998238;28;20026;-70
2024/01/23 12:37:10;;;;;;;14.35;2.13;;;9.80;99.90;;;;;;4998462;28;20018;-66
2024/01/23 12:39:36;;;;;;;12.38;2.10;;;9.80;99.90;;;;;;4997183;28;20026;-66
2024/01/23 12:42:02;;;;;;;10.77;1.40;;;9.70;99.90;;;;;;4997072;28;20101;-66
2024/01/23 12:44:28;;;;;;;13.50;2.53;;;9.60;99.90;;;;;;4998404;28;20022;-66
2024/01/23 12:46:54;;;;;;;12.65;1.30;;;9.60;99.90;;;;;;4997943;28;20035;-66